Time;durP1;ratioP1;P1;durP2;ratioP2;P2;SDS_P1;SDS_P2;PMS_P1;PMS_P2;Temp;Humidity;BMP_temperature;BMP_pressure;BME280_temperature;BME280_humidity;BME280_pressure;Samples;Min_cycle;Max_cycle;Signal;HPM_P1;HPM_P2
2023/07/08 00:01:12;;;;;;;4.70;4.20;;;;;;;13.76;56.60;100792.05;129318;1280;107600;-77
2023/07/08 00:04:26;;;;;;;7.10;4.40;;;;;;;13.72;56.95;100794.30;129158;1270;106653;-77
2023/07/08 00:07:32;;;;;;;6.40;4.60;;;;;;;13.57;56.89;100792.39;129436;1272;107589;-77
2023/07/08 00:10:38;;;;;;;5.50;4.40;;;;;;;13.48;56.94;100789.59;129244;1274;107560;-78
2023/07/08 00:13:43;;;;;;;5.60;4.80;;;;;;;13.46;56.91;100786.10;129137;1273;107578;-78
2023/07/08 00:16:49;;;;;;;5.10;4.30;;;;;;;13.44;56.94;100783.94;129139;1273;107591;-78
2023/07/08 00:19:55;;;;;;;6.60;4.80;;;;;;;13.44;57.08;100784.00;129283;1267;107292;-78
2023/07/08 00:23:01;;;;;;;6.50;4.70;;;;;;;13.40;57.05;100787.91;129397;1273;108512;-78
2023/07/08 00:26:14;;;;;;;6.10;4.70;;;;;;;13.38;57.28;100786.41;129419;1272;107226;-78
2023/07/08 00:29:20;;;;;;;5.30;4.70;;;;;;;13.31;57.52;100790.77;129348;1284;107651;-78
2023/07/08 00:32:26;;;;;;;4.90;4.40;;;;;;;13.24;57.65;100793.34;129318;1274;106679;-77
2023/07/08 00:35:35;;;;;;;4.80;4.30;;;;;;;13.23;57.66;100792.15;129396;1281;107513;-76
2023/07/08 00:38:44;;;;;;;5.70;4.70;;;;;;;13.21;57.68;100793.58;129478;1268;107273;-78
2023/07/08 00:41:51;;;;;;;4.70;4.20;;;;;;;13.19;57.73;100792.72;129349;1281;107845;-76
2023/07/08 00:44:57;;;;;;;4.40;4.00;;;;;;;13.17;57.92;100791.65;129214;1273;107511;-77
2023/07/08 00:48:09;;;;;;;5.50;4.40;;;;;;;13.15;58.02;100789.73;129120;1270;107499;-77
2023/07/08 00:51:15;;;;;;;5.10;4.00;;;;;;;13.13;58.10;100790.14;129370;1267;107292;-78
2023/07/08 00:54:22;;;;;;;4.50;4.00;;;;;;;13.10;58.18;100791.72;129196;1271;108252;-78
2023/07/08 00:57:31;;;;;;;4.90;4.30;;;;;;;13.08;58.28;100789.71;129166;1273;107554;-77
2023/07/08 01:00:36;;;;;;;5.30;4.10;;;;;;;13.05;58.43;100784.32;129160;1273;107586;-77
2023/07/08 01:03:50;;;;;;;4.80;4.10;;;;;;;13.04;58.33;100784.30;129185;1273;107552;-78
2023/07/08 01:06:59;;;;;;;4.90;4.40;;;;;;;13.01;58.44;100782.05;129341;1273;107519;-77
2023/07/08 01:10:12;;;;;;;5.50;4.70;;;;;;;12.99;58.58;100784.31;129247;1281;107488;-78
2023/07/08 01:13:19;;;;;;;4.50;4.00;;;;;;;12.94;58.63;100780.73;129214;1273;107589;-77
2023/07/08 01:16:25;;;;;;;5.10;4.20;;;;;;;12.88;58.84;100780.81;129241;1281;107565;-77
2023/07/08 01:19:33;;;;;;;5.90;3.90;;;;;;;12.87;58.88;100783.81;129330;1274;107555;-77
2023/07/08 01:22:39;;;;;;;5.50;4.50;;;;;;;12.91;58.96;100778.45;129263;1273;107468;-76
2023/07/08 01:25:46;;;;;;;4.20;3.80;;;;;;;12.96;58.91;100776.85;129427;1273;107535;-76
2023/07/08 01:28:52;;;;;;;6.80;4.70;;;;;;;12.96;58.96;100775.25;129275;1273;105572;-76
2023/07/08 01:32:02;;;;;;;5.80;4.40;;;;;;;12.96;59.05;100778.47;129269;1268;107543;-76
2023/07/08 01:35:10;;;;;;;5.10;4.40;;;;;;;12.95;59.04;100775.33;129336;1268;107299;-77
2023/07/08 01:38:18;;;;;;;5.50;4.60;;;;;;;12.93;59.29;100776.02;129383;1272;106549;-77
2023/07/08 01:41:23;;;;;;;5.40;4.60;;;;;;;12.87;59.48;100774.30;129434;1271;107601;-77
2023/07/08 01:44:32;;;;;;;4.80;4.30;;;;;;;12.80;59.40;100770.80;129431;1272;107241;-78
2023/07/08 01:47:37;;;;;;;4.60;4.10;;;;;;;12.75;59.39;100770.05;129447;1268;107208;-77
2023/07/08 01:50:46;;;;;;;5.30;4.40;;;;;;;12.72;59.43;100769.10;129431;1270;107605;-78
2023/07/08 01:53:52;;;;;;;5.20;4.70;;;;;;;12.64;59.52;100773.64;129469;1274;107652;-76
2023/07/08 01:57:00;;;;;;;4.90;4.30;;;;;;;12.58;59.76;100778.84;129151;1273;105675;-77
2023/07/08 02:00:08;;;;;;;4.90;4.30;;;;;;;12.56;59.63;100781.58;129124;1270;107653;-77
2023/07/08 02:03:19;;;;;;;6.10;4.40;;;;;;;12.53;59.65;100775.56;129309;1274;107684;-77
2023/07/08 02:06:24;;;;;;;6.90;4.80;;;;;;;12.50;59.62;100781.58;129378;1273;107551;-77
2023/07/08 02:09:30;;;;;;;6.70;4.50;;;;;;;12.48;60.03;100777.92;129241;1274;107574;-77
2023/07/08 02:12:35;;;;;;;5.50;4.50;;;;;;;12.45;59.96;100777.48;129196;1268;107526;-77
2023/07/08 02:15:42;;;;;;;6.10;4.30;;;;;;;12.44;59.88;100779.41;129336;1273;107561;-77
2023/07/08 02:18:47;;;;;;;5.00;4.30;;;;;;;12.44;59.83;100779.79;129298;1272;107535;-77
2023/07/08 02:21:53;;;;;;;5.90;4.30;;;;;;;12.39;60.07;100777.59;129459;1273;107478;-77
2023/07/08 02:24:58;;;;;;;4.70;4.10;;;;;;;12.31;60.13;100776.05;129360;1271;107267;-77
2023/07/08 02:28:04;;;;;;;7.10;5.10;;;;;;;12.28;60.14;100780.06;129410;1272;107592;-77
2023/07/08 02:31:10;;;;;;;5.20;4.40;;;;;;;12.29;60.39;100778.23;129341;1274;107456;-77
2023/07/08 02:34:15;;;;;;;5.50;4.50;;;;;;;12.32;60.30;100780.27;129332;1280;107539;-77
2023/07/08 02:37:21;;;;;;;6.10;4.60;;;;;;;12.29;60.25;100777.27;129014;1274;107595;-76
2023/07/08 02:40:27;;;;;;;5.00;4.20;;;;;;;12.29;60.38;100778.73;129189;1273;107922;-77
2023/07/08 02:43:33;;;;;;;4.80;4.30;;;;;;;12.26;60.45;100776.33;129343;1273;107412;-77
2023/07/08 02:46:39;;;;;;;5.50;4.40;;;;;;;12.27;60.66;100775.92;129130;1270;107338;-76
2023/07/08 02:49:45;;;;;;;4.90;4.40;;;;;;;12.28;60.72;100774.85;129230;1268;106583;-76
2023/07/08 02:52:51;;;;;;;5.10;4.30;;;;;;;12.28;60.67;100765.92;129217;1270;107395;-76
2023/07/08 02:55:56;;;;;;;4.80;4.30;;;;;;;12.26;60.90;100769.44;129219;1272;107569;-78
2023/07/08 02:59:02;;;;;;;5.40;4.30;;;;;;;12.20;60.93;100764.95;129279;1268;107575;-78
2023/07/08 03:02:07;;;;;;;5.10;3.90;;;;;;;12.23;60.85;100766.73;129329;1273;107556;-78
2023/07/08 03:05:13;;;;;;;4.90;3.90;;;;;;;12.24;60.95;100764.02;129195;1273;107618;-78
2023/07/08 03:08:18;;;;;;;4.90;4.40;;;;;;;12.27;60.94;100763.20;129254;1268;107333;-78
2023/07/08 03:11:24;;;;;;;5.00;4.40;;;;;;;12.34;61.00;100763.45;129278;1272;106929;-78
2023/07/08 03:14:30;;;;;;;5.40;4.40;;;;;;;12.37;60.99;100768.41;129259;1281;107592;-77
2023/07/08 03:17:35;;;;;;;6.10;4.30;;;;;;;12.44;61.17;100773.13;129151;1273;107617;-78
2023/07/08 03:20:44;;;;;;;5.50;4.60;;;;;;;12.52;61.21;100776.22;129171;1273;107517;-78
2023/07/08 03:23:52;;;;;;;5.30;4.20;;;;;;;12.72;61.24;100778.87;129423;1272;107686;-78
2023/07/08 03:27:00;;;;;;;5.90;4.30;;;;;;;12.95;61.28;100775.71;129250;1267;107605;-78
2023/07/08 03:30:08;;;;;;;5.20;4.20;;;;;;;13.19;61.02;100780.02;129312;1268;107670;-78
2023/07/08 03:33:14;;;;;;;5.80;4.30;;;;;;;13.48;61.06;100778.56;129423;1273;106561;-78
2023/07/08 03:36:24;;;;;;;4.90;3.80;;;;;;;13.77;60.96;100780.58;129423;1273;107425;-78
2023/07/08 03:39:31;;;;;;;5.10;4.30;;;;;;;14.07;60.88;100784.69;129477;1273;107574;-78
2023/07/08 03:42:37;;;;;;;4.70;3.90;;;;;;;14.40;60.80;100785.67;129168;1284;107599;-78
2023/07/08 03:45:42;;;;;;;5.40;4.20;;;;;;;14.71;60.67;100789.30;129349;1273;107263;-79
2023/07/08 03:48:49;;;;;;;4.40;3.90;;;;;;;14.97;60.82;100786.81;129156;1271;107582;-79
2023/07/08 03:51:56;;;;;;;4.30;3.90;;;;;;;15.26;60.45;100785.61;129108;1273;107288;-79
2023/07/08 03:55:03;;;;;;;5.40;3.90;;;;;;;15.53;60.40;100788.23;129278;1268;107472;-79
2023/07/08 03:58:09;;;;;;;4.70;3.90;;;;;;;15.80;60.36;100787.09;129132;1273;107551;-79
2023/07/08 04:01:20;;;;;;;4.80;4.00;;;;;;;16.07;60.33;100783.31;129123;1272;107576;-79
2023/07/08 04:04:26;;;;;;;4.70;4.00;;;;;;;16.35;60.20;100776.55;129199;1276;106603;-80
2023/07/08 04:07:32;;;;;;;4.20;3.80;;;;;;;16.57;60.21;100781.56;129330;1273;107308;-79
2023/07/08 04:10:37;;;;;;;4.40;4.00;;;;;;;16.87;60.04;100778.73;129378;1270;107648;-79
2023/07/08 04:13:43;;;;;;;4.70;3.80;;;;;;;17.13;59.94;100777.41;129196;1274;107570;-80
2023/07/08 04:16:51;;;;;;;4.40;4.00;;;;;;;17.32;59.94;100772.80;129169;1270;107447;-79
2023/07/08 04:19:57;;;;;;;5.30;3.80;;;;;;;17.53;59.94;100773.77;129232;1273;107564;-79
2023/07/08 04:23:03;;;;;;;4.30;3.90;;;;;;;17.77;59.85;100775.50;129382;1273;107489;-80
2023/07/08 04:26:10;;;;;;;4.10;3.70;;;;;;;17.96;59.85;100770.34;129435;1273;107287;-79
2023/07/08 04:29:18;;;;;;;4.90;3.90;;;;;;;18.18;59.80;100764.65;129800;1269;107425;-79
2023/07/08 04:32:24;;;;;;;4.70;3.90;;;;;;;18.37;59.83;100767.27;129597;1273;107577;-79
2023/07/08 04:35:30;;;;;;;6.50;4.00;;;;;;;18.56;59.89;100772.99;129463;1273;107659;-80
2023/07/08 04:38:36;;;;;;;5.20;3.80;;;;;;;18.75;59.88;100770.84;129589;1267;107609;-79
2023/07/08 04:41:43;;;;;;;5.20;4.00;;;;;;;18.93;59.93;100767.98;129560;1272;107545;-80
2023/07/08 04:44:49;;;;;;;5.40;3.60;;;;;;;19.13;59.92;100768.02;129632;1273;107574;-80
2023/07/08 04:47:55;;;;;;;7.10;4.00;;;;;;;19.31;59.93;100763.48;129528;1281;106790;-79
2023/07/08 04:51:00;;;;;;;5.20;4.20;;;;;;;19.49;59.96;100763.67;129548;1267;107570;-82
2023/07/08 04:54:06;;;;;;;5.70;4.20;;;;;;;19.66;59.98;100762.07;129593;1273;107558;-80
2023/07/08 04:57:12;;;;;;;4.80;3.90;;;;;;;19.84;60.14;100760.40;129489;1272;107531;-80
2023/07/08 05:00:19;;;;;;;6.80;4.10;;;;;;;20.04;59.88;100760.05;129313;1268;107689;-79
2023/07/08 05:03:25;;;;;;;5.10;4.60;;;;;;;20.22;60.00;100759.27;129438;1272;107682;-78
2023/07/08 05:06:30;;;;;;;5.20;4.40;;;;;;;20.39;59.61;100762.31;129237;1273;107417;-78
2023/07/08 05:09:36;;;;;;;5.70;4.10;;;;;;;20.55;59.67;100757.17;129258;1273;107146;-79
2023/07/08 05:12:41;;;;;;;4.50;2.80;;;;;;;20.66;59.49;100758.92;129283;1270;107563;-79
2023/07/08 05:15:48;;;;;;;4.60;2.90;;;;;;;20.85;59.17;100756.59;129176;1267;107636;-78
2023/07/08 05:18:54;;;;;;;5.30;3.30;;;;;;;21.12;58.87;100753.24;129420;1273;107499;-79
2023/07/08 05:21:59;;;;;;;4.80;3.50;;;;;;;21.38;58.48;100749.89;129309;1273;107694;-78
2023/07/08 05:25:06;;;;;;;4.20;3.30;;;;;;;21.59;58.15;100744.69;129472;1268;108757;-78
2023/07/08 05:28:12;;;;;;;5.50;3.10;;;;;;;21.77;57.98;100745.47;129420;1268;107626;-78
2023/07/08 05:31:17;;;;;;;6.20;3.10;;;;;;;21.96;57.76;100746.44;129417;1268;108159;-78
2023/07/08 05:34:23;;;;;;;5.50;3.50;;;;;;;22.14;57.52;100747.72;129487;1267;107473;-80
2023/07/08 05:37:29;;;;;;;6.00;3.80;;;;;;;22.28;57.30;100748.42;129348;1273;107555;-79
2023/07/08 05:40:34;;;;;;;5.40;3.70;;;;;;;22.44;57.20;100747.77;129400;1273;107243;-79
2023/07/08 05:43:40;;;;;;;4.80;3.50;;;;;;;22.58;56.79;100745.04;129446;1267;107371;-78
2023/07/08 05:46:45;;;;;;;4.30;3.30;;;;;;;22.64;55.92;100741.90;129248;1273;106702;-78
2023/07/08 05:49:51;;;;;;;5.10;3.10;;;;;;;22.67;56.15;100735.56;129435;1267;107717;-78
2023/07/08 05:52:56;;;;;;;3.80;3.30;;;;;;;22.78;56.13;100735.55;129467;1267;107586;-78
2023/07/08 05:56:03;;;;;;;4.80;3.00;;;;;;;22.87;55.91;100727.22;129488;1268;107670;-78
2023/07/08 05:59:08;;;;;;;4.40;3.00;;;;;;;22.92;55.58;100728.69;129402;1273;107513;-78
2023/07/08 06:02:14;;;;;;;5.90;3.30;;;;;;;22.97;55.33;100729.48;129324;1268;107191;-78
2023/07/08 06:05:20;;;;;;;4.40;3.00;;;;;;;22.98;54.99;100730.98;129367;1273;107603;-79
2023/07/08 06:08:25;;;;;;;8.30;3.10;;;;;;;23.00;55.05;100728.16;129380;1272;107874;-78
2023/07/08 06:11:31;;;;;;;3.30;2.90;;;;;;;23.02;54.74;100727.56;129208;1267;107254;-78
2023/07/08 06:14:38;;;;;;;3.80;3.10;;;;;;;23.05;54.43;100730.27;129346;1268;107275;-78
2023/07/08 06:17:44;;;;;;;4.50;3.10;;;;;;;23.01;54.11;100727.74;129466;1267;107262;-79
2023/07/08 06:20:55;;;;;;;3.30;2.90;;;;;;;23.01;54.27;100723.84;129484;1273;107477;-79
2023/07/08 06:24:01;;;;;;;3.30;2.70;;;;;;;23.03;54.02;100722.48;129382;1268;107584;-78
2023/07/08 06:27:07;;;;;;;4.40;3.10;;;;;;;23.02;54.04;100725.42;129375;1272;107569;-79
2023/07/08 06:30:13;;;;;;;4.70;2.80;;;;;;;23.03;53.83;100726.06;129368;1272;107651;-79
2023/07/08 06:33:19;;;;;;;3.20;2.90;;;;;;;22.98;52.89;100722.98;129607;1268;107801;-79
2023/07/08 06:36:24;;;;;;;4.40;2.70;;;;;;;22.96;53.35;100723.27;129498;1268;107546;-79
2023/07/08 06:39:30;;;;;;;4.20;2.70;;;;;;;22.99;52.95;100718.95;129508;1273;107720;-79
2023/07/08 06:42:35;;;;;;;4.40;2.70;;;;;;;22.99;52.06;100716.77;129311;1270;107536;-79
2023/07/08 10:42:00;;;;;;;2.70;1.70;;;;;;;27.70;32.21;100651.20;129532;1268;108990;-77
2023/07/08 10:45:14;;;;;;;3.00;1.90;;;;;;;27.69;31.05;100650.88;129268;1273;107718;-77
2023/07/08 10:48:33;;;;;;;3.10;1.90;;;;;;;27.70;32.50;100651.55;129132;1280;106734;-75
2023/07/08 10:51:46;;;;;;;2.50;2.00;;;;;;;27.72;32.23;100644.16;129209;1273;107479;-77
2023/07/08 10:55:08;;;;;;;4.10;2.30;;;;;;;27.69;31.36;100642.81;129161;1273;106720;-77
2023/07/08 10:58:41;;;;;;;2.50;2.00;;;;;;;27.74;31.85;100639.25;129148;1267;107673;-77
2023/07/08 11:01:59;;;;;;;3.10;1.90;;;;;;;27.66;30.50;100641.09;129144;1268;109459;-77
2023/07/08 11:05:23;;;;;;;2.30;1.90;;;;;;;27.53;31.39;100640.27;129337;1272;107566;-77
2023/07/08 11:08:36;;;;;;;2.10;1.80;;;;;;;27.63;30.59;100642.58;129297;1273;107604;-78
2023/07/08 11:11:47;;;;;;;5.20;1.90;;;;;;;27.77;30.27;100635.81;129198;1273;107479;-77
2023/07/08 11:14:55;;;;;;;;;;;;;;;27.88;30.08;100629.59;129373;1283;107505;-77
2023/07/08 11:18:06;;;;;;;1.90;1.80;;;;;;;27.92;30.69;100630.85;129434;1268;107405;-77
2023/07/08 11:21:17;;;;;;;2.10;1.60;;;;;;;28.02;31.04;100626.61;129451;1272;107587;-77
2023/07/08 11:24:29;;;;;;;2.00;1.90;;;;;;;28.04;29.82;100626.03;129341;1273;107607;-78
2023/07/08 11:27:41;;;;;;;2.00;1.90;;;;;;;27.89;29.79;100618.67;129287;1273;107478;-77
2023/07/08 11:30:51;;;;;;;1.90;1.80;;;;;;;27.92;30.37;100618.89;129427;1273;107541;-77
2023/07/08 11:33:58;;;;;;;2.30;1.90;;;;;;;27.98;30.40;100617.74;129198;1273;107577;-77
2023/07/08 11:37:05;;;;;;;2.70;1.80;;;;;;;27.97;29.33;100616.75;129125;1272;107473;-76
2023/07/08 11:40:21;;;;;;;2.00;1.80;;;;;;;27.95;30.49;100612.06;129402;1272;107461;-77
2023/07/08 11:43:35;;;;;;;2.20;2.00;;;;;;;28.03;30.54;100610.09;129331;1274;107552;-76
2023/07/08 11:46:56;;;;;;;3.20;1.90;;;;;;;28.13;30.51;100607.34;129126;1273;107533;-76
2023/07/08 11:50:03;;;;;;;4.60;1.90;;;;;;;28.22;29.50;100608.02;129100;1273;107462;-76
2023/07/08 11:53:12;;;;;;;3.70;2.40;;;;;;;28.20;29.36;100615.20;129105;1272;107485;-76
2023/07/08 11:56:27;;;;;;;3.50;2.40;;;;;;;28.10;29.24;100616.42;129164;1273;107274;-77
2023/07/08 11:59:38;;;;;;;2.30;1.80;;;;;;;28.06;29.32;100616.44;129282;1270;107461;-77
2023/07/08 12:02:56;;;;;;;2.00;1.80;;;;;;;28.01;28.40;100609.98;129208;1267;107585;-76
2023/07/08 12:06:06;;;;;;;2.20;1.90;;;;;;;27.98;30.06;100597.17;129133;1274;107930;-76
2023/07/08 12:09:24;;;;;;;2.70;1.80;;;;;;;28.06;29.99;100594.43;129145;1274;107557;-76
2023/07/08 12:12:33;;;;;;;2.40;2.00;;;;;;;28.05;29.44;100597.33;129219;1273;107458;-76
2023/07/08 12:15:39;;;;;;;2.90;2.00;;;;;;;28.05;29.29;100592.77;129133;1268;107012;-76
2023/07/08 12:18:46;;;;;;;2.80;2.00;;;;;;;28.07;28.76;100594.83;129134;1273;107559;-76
2023/07/08 12:21:52;;;;;;;3.80;2.10;;;;;;;28.04;28.57;100594.73;129133;1272;107543;-76
2023/07/08 12:25:03;;;;;;;2.40;2.00;;;;;;;28.04;28.00;100597.33;129124;1268;107572;-76
2023/07/08 12:28:09;;;;;;;2.10;1.80;;;;;;;28.08;28.85;100599.34;129134;1273;107560;-76
2023/07/08 12:31:19;;;;;;;1.80;1.70;;;;;;;28.18;29.27;100594.04;129144;1270;107247;-76
2023/07/08 12:34:26;;;;;;;2.60;2.00;;;;;;;28.24;28.32;100582.57;129167;1267;107264;-76
2023/07/08 12:37:33;;;;;;;2.00;1.70;;;;;;;28.24;28.82;100581.09;129240;1267;107592;-76
2023/07/08 12:40:38;;;;;;;2.20;1.90;;;;;;;28.29;28.00;100577.94;129034;1268;123051;-77
2023/07/08 12:43:44;;;;;;;3.30;2.20;;;;;;;28.21;27.75;100577.22;129145;1274;107646;-76
2023/07/08 12:46:53;;;;;;;2.10;1.80;;;;;;;28.21;28.04;100574.86;129122;1273;107588;-76
2023/07/08 12:49:59;;;;;;;2.80;2.00;;;;;;;28.22;27.66;100573.01;129114;1274;106170;-76
2023/07/08 12:53:09;;;;;;;2.30;2.10;;;;;;;28.23;28.36;100561.36;129143;1273;107279;-76
2023/07/08 12:56:15;;;;;;;2.20;2.00;;;;;;;28.29;27.91;100562.46;129170;1274;107427;-76
2023/07/08 12:59:23;;;;;;;7.10;3.10;;;;;;;28.30;28.52;100550.50;129228;1270;107576;-77
2023/07/08 13:02:32;;;;;;;2.20;1.80;;;;;;;28.28;27.77;100557.84;129356;1273;108618;-76
2023/07/08 13:05:38;;;;;;;2.90;2.20;;;;;;;28.26;27.07;100560.08;129162;1273;107379;-77
2023/07/08 13:08:45;;;;;;;3.10;2.40;;;;;;;28.27;28.02;100550.48;129139;1273;107591;-76
2023/07/08 13:11:52;;;;;;;2.00;1.80;;;;;;;28.31;28.17;100551.00;129141;1273;107591;-76
2023/07/08 13:15:00;;;;;;;2.40;2.20;;;;;;;28.34;27.75;100557.35;129155;1274;107383;-76
2023/07/08 13:18:06;;;;;;;3.50;2.00;;;;;;;28.33;27.77;100542.55;129217;1274;108065;-76
2023/07/08 13:21:15;;;;;;;2.20;2.00;;;;;;;28.29;27.50;100546.05;129325;1273;107278;-76
2023/07/08 13:24:22;;;;;;;2.20;1.80;;;;;;;28.26;28.08;100545.27;129226;1274;108770;-76
2023/07/08 13:27:28;;;;;;;2.30;2.00;;;;;;;28.25;26.88;100548.04;129216;1282;107417;-76
2023/07/08 13:30:34;;;;;;;2.50;1.80;;;;;;;28.05;27.21;100544.84;129428;1273;107591;-76
2023/07/08 13:33:45;;;;;;;2.50;1.90;;;;;;;27.96;27.37;100542.69;129149;1268;106930;-76
2023/07/08 13:36:53;;;;;;;1.80;1.70;;;;;;;27.86;27.63;100538.29;129253;1280;107388;-76
2023/07/08 13:39:58;;;;;;;2.00;1.80;;;;;;;27.88;27.32;100537.15;129192;1273;107562;-76
2023/07/08 13:43:07;;;;;;;3.60;1.90;;;;;;;27.94;28.09;100532.78;129278;1273;107590;-76
2023/07/08 13:46:35;;;;;;;3.30;1.80;;;;;;;28.07;28.12;100533.72;129185;1273;107543;-76
2023/07/08 13:49:46;;;;;;;2.40;2.00;;;;;;;28.16;27.91;100525.55;129357;1274;107581;-76
2023/07/08 13:52:56;;;;;;;2.40;2.20;;;;;;;28.23;27.07;100533.34;129427;1273;108611;-76
2023/07/08 13:56:08;;;;;;;2.50;2.10;;;;;;;28.16;26.73;100530.32;129197;1273;107363;-76
2023/07/08 13:59:19;;;;;;;1.80;1.70;;;;;;;28.22;27.87;100521.19;129263;1268;109417;-76
2023/07/08 14:02:27;;;;;;;2.70;1.90;;;;;;;28.30;27.33;100520.27;129550;1273;107518;-76
2023/07/08 14:05:33;;;;;;;2.40;2.20;;;;;;;28.34;26.97;100524.89;129391;1274;107854;-76
2023/07/08 14:08:38;;;;;;;5.40;2.00;;;;;;;28.34;27.55;100520.17;129487;1273;107592;-76
2023/07/08 14:11:47;;;;;;;3.10;1.90;;;;;;;28.36;27.06;100513.06;129169;1276;107354;-76
2023/07/08 14:14:53;;;;;;;3.10;1.90;;;;;;;28.36;27.51;100509.15;129366;1282;106104;-77
2023/07/08 14:17:59;;;;;;;1.90;1.80;;;;;;;28.39;27.71;100503.68;129398;1272;107572;-76
2023/07/08 14:21:04;;;;;;;2.40;2.20;;;;;;;28.40;26.94;100504.67;129403;1274;107523;-76
2023/07/08 14:24:15;;;;;;;2.90;1.70;;;;;;;28.40;26.76;100504.17;129378;1273;106703;-76
2023/07/08 14:27:21;;;;;;;2.00;1.80;;;;;;;28.41;27.02;100505.83;129463;1273;107648;-76
2023/07/08 14:30:26;;;;;;;2.00;1.80;;;;;;;28.42;26.72;100504.73;129403;1270;107526;-76
2023/07/08 14:33:32;;;;;;;2.30;1.80;;;;;;;28.43;27.13;100496.52;129296;1270;108063;-76
2023/07/08 14:36:37;;;;;;;2.20;1.90;;;;;;;28.45;27.19;100495.54;129397;1281;107605;-76
2023/07/08 14:39:44;;;;;;;3.40;2.00;;;;;;;28.48;26.95;100493.90;129396;1273;107120;-76
2023/07/08 14:42:50;;;;;;;2.40;2.00;;;;;;;28.42;27.27;100488.32;129418;1272;107570;-76
2023/07/08 14:45:59;;;;;;;2.00;1.90;;;;;;;28.40;27.10;100493.09;129434;1268;107289;-76
2023/07/08 14:49:15;;;;;;;2.50;2.00;;;;;;;28.36;27.18;100490.54;129238;1274;107311;-76
2023/07/08 14:52:21;;;;;;;2.20;2.00;;;;;;;28.33;27.06;100490.64;129182;1273;108199;-76
2023/07/08 14:55:27;;;;;;;3.60;2.00;;;;;;;28.30;27.10;100491.83;129294;1273;108024;-76
2023/07/08 14:58:34;;;;;;;2.60;2.10;;;;;;;28.32;27.43;100486.79;129148;1281;107594;-76
2023/07/08 15:01:40;;;;;;;3.00;2.10;;;;;;;28.33;27.18;100484.05;129306;1273;107615;-76
2023/07/08 15:04:46;;;;;;;1.90;1.70;;;;;;;28.32;27.25;100479.98;129286;1268;107513;-76
2023/07/08 15:07:53;;;;;;;2.40;2.10;;;;;;;28.33;27.42;100476.92;129393;1273;107741;-77
2023/07/08 15:11:00;;;;;;;2.20;2.00;;;;;;;28.29;26.88;100479.64;129428;1273;107599;-76
2023/07/08 15:14:11;;;;;;;2.30;1.90;;;;;;;28.25;26.59;100475.33;129225;1271;107716;-76
2023/07/08 15:17:17;;;;;;;2.70;1.80;;;;;;;28.23;27.12;100465.67;129425;1269;107658;-76
2023/07/08 15:20:23;;;;;;;2.10;1.80;;;;;;;28.26;27.20;100464.86;129414;1270;107584;-76
2023/07/08 15:23:29;;;;;;;3.00;2.10;;;;;;;28.30;27.40;100467.46;129390;1273;107459;-76
2023/07/08 15:26:34;;;;;;;2.30;1.90;;;;;;;28.31;26.94;100466.21;129395;1272;107393;-76
2023/07/08 15:29:40;;;;;;;3.50;1.90;;;;;;;28.32;27.36;100461.77;129354;1273;107487;-78
2023/07/08 15:32:46;;;;;;;3.80;2.00;;;;;;;28.31;27.29;100463.56;129147;1281;107284;-78
2023/07/08 15:35:53;;;;;;;1.90;1.80;;;;;;;28.27;26.93;100460.97;129174;1274;107558;-76
2023/07/08 15:38:58;;;;;;;2.90;1.90;;;;;;;28.25;27.27;100460.25;129250;1273;106047;-76
2023/07/08 15:42:04;;;;;;;2.40;1.90;;;;;;;28.23;27.19;100457.05;129399;1270;106852;-76
2023/07/08 15:45:23;;;;;;;3.60;2.10;;;;;;;28.21;27.01;100458.31;129225;1272;107677;-76
2023/07/08 15:48:28;;;;;;;2.60;2.00;;;;;;;28.14;27.02;100458.38;129249;1273;107302;-76
2023/07/08 15:51:34;;;;;;;3.60;2.10;;;;;;;28.14;27.09;100456.58;129129;1272;106777;-76
2023/07/08 15:54:40;;;;;;;2.90;2.00;;;;;;;28.14;27.03;100453.98;129359;1274;107296;-76
2023/07/08 15:57:49;;;;;;;2.10;1.90;;;;;;;28.12;26.85;100455.23;129155;1281;109133;-76
2023/07/08 16:00:55;;;;;;;3.30;2.10;;;;;;;28.10;26.77;100452.09;129357;1270;107606;-76
2023/07/08 16:04:01;;;;;;;2.30;2.10;;;;;;;28.09;26.87;100448.25;129279;1273;107440;-77
2023/07/08 16:07:09;;;;;;;2.30;2.00;;;;;;;28.07;27.01;100446.27;129098;1268;108683;-76
2023/07/08 16:10:15;;;;;;;2.90;2.30;;;;;;;28.06;27.23;100450.81;129148;1281;106827;-76
2023/07/08 16:13:25;;;;;;;2.60;2.40;;;;;;;28.06;27.01;100453.50;129301;1268;107538;-76
2023/07/08 16:16:31;;;;;;;2.30;2.10;;;;;;;28.02;27.05;100456.05;129316;1268;106697;-77
2023/07/08 16:19:37;;;;;;;2.60;1.90;;;;;;;27.99;26.93;100448.47;129326;1273;106731;-76
2023/07/08 16:22:44;;;;;;;2.20;2.00;;;;;;;28.00;27.32;100448.19;129394;1272;106811;-77
2023/07/08 16:25:51;;;;;;;3.50;2.20;;;;;;;27.99;27.21;100448.63;129299;1273;107545;-76
2023/07/08 16:28:59;;;;;;;3.20;2.00;;;;;;;27.96;26.60;100444.36;129433;1272;107544;-76
2023/07/08 16:32:09;;;;;;;3.10;2.10;;;;;;;27.93;27.40;100445.95;129147;1273;107553;-76
2023/07/08 16:35:16;;;;;;;2.60;2.30;;;;;;;27.91;27.45;100443.79;129249;1270;105704;-76
2023/07/08 16:38:22;;;;;;;5.10;2.10;;;;;;;27.86;27.28;100441.21;129239;1284;107500;-76
2023/07/08 16:41:38;;;;;;;4.10;2.30;;;;;;;27.83;27.33;100441.30;129233;1281;108717;-76
2023/07/08 16:44:44;;;;;;;3.00;2.20;;;;;;;27.79;27.44;100441.94;129395;1281;107453;-76
2023/07/08 16:47:51;;;;;;;2.80;2.30;;;;;;;27.76;27.48;100438.45;129275;1274;106727;-76
2023/07/08 16:50:57;;;;;;;2.80;2.60;;;;;;;27.71;27.29;100436.22;129338;1282;107611;-76
2023/07/08 16:54:12;;;;;;;5.80;2.50;;;;;;;27.66;27.27;100434.33;129404;1273;107263;-76
2023/07/08 16:57:18;;;;;;;2.30;2.10;;;;;;;27.62;27.49;100437.85;129395;1281;107582;-76
2023/07/08 17:00:23;;;;;;;3.90;2.40;;;;;;;27.60;27.56;100436.26;129223;1272;107553;-76
2023/07/08 17:03:32;;;;;;;2.80;2.00;;;;;;;27.58;27.86;100436.16;129140;1281;107572;-76
2023/07/08 17:06:37;;;;;;;3.10;2.30;;;;;;;27.54;27.98;100436.96;129213;1270;107282;-76
2023/07/08 17:09:43;;;;;;;6.60;3.30;;;;;;;27.50;27.92;100437.20;129257;1281;105777;-76
2023/07/08 17:12:49;;;;;;;3.80;2.60;;;;;;;27.46;28.15;100434.89;129236;1281;107675;-76
2023/07/08 17:15:54;;;;;;;4.10;2.80;;;;;;;27.42;28.22;100431.88;129271;1273;108145;-76
2023/07/08 17:19:01;;;;;;;5.00;2.60;;;;;;;27.37;28.12;100433.97;129348;1281;107616;-76
2023/07/08 17:22:08;;;;;;;4.10;2.50;;;;;;;27.32;28.37;100431.52;129231;1281;107408;-76
2023/07/08 17:25:17;;;;;;;4.10;2.50;;;;;;;27.27;28.55;100430.98;129430;1281;107534;-76
2023/07/08 17:28:23;;;;;;;8.60;3.30;;;;;;;27.22;28.67;100430.30;129451;1273;107575;-76
2023/07/08 17:31:29;;;;;;;6.20;2.90;;;;;;;27.19;28.77;100433.17;129251;1281;107794;-76
2023/07/08 17:34:35;;;;;;;4.50;2.70;;;;;;;27.19;28.90;100436.73;129098;1273;107262;-76
2023/07/08 17:37:41;;;;;;;4.60;2.80;;;;;;;27.22;29.20;100436.44;129159;1269;107229;-78
2023/07/08 17:40:47;;;;;;;7.20;2.90;;;;;;;27.27;29.23;100436.41;129246;1281;107443;-78
2023/07/08 17:43:52;;;;;;;5.10;3.40;;;;;;;27.35;29.30;100435.05;129276;1274;107568;-77
2023/07/08 17:47:00;;;;;;;5.10;3.20;;;;;;;27.47;29.52;100441.45;129180;1273;107309;-78
2023/07/08 17:50:15;;;;;;;7.30;3.50;;;;;;;27.58;29.61;100436.63;129134;1277;107611;-76
2023/07/08 17:53:21;;;;;;;5.10;3.00;;;;;;;27.69;29.47;100442.02;129145;1270;106408;-77
2023/07/08 17:56:31;;;;;;;6.50;3.80;;;;;;;27.80;29.59;100440.73;129233;1281;108123;-77
2023/07/08 17:59:36;;;;;;;4.80;3.20;;;;;;;27.91;29.89;100441.42;129552;1270;109329;-78
2023/07/08 18:02:43;;;;;;;4.60;3.10;;;;;;;27.99;30.40;100442.42;129721;1270;109767;-77
2023/07/08 18:05:49;;;;;;;6.20;3.10;;;;;;;28.05;30.94;100441.19;129553;1273;105720;-78
2023/07/08 18:08:55;;;;;;;4.30;3.00;;;;;;;28.06;31.18;100438.86;129407;1273;107598;-77